Tieton, WA

8:25 AM PDT on August 29, 2014 (GMT -0700)
Tieton, WA | Change Station
CLOSE
Current Station
Personal Weather Station
Location: Tieton, WA
Elevation: 1970 ft
Nearby Weather Stations

Elev 1970 ft 46.71 °N, 120.72 °W | Updated 9 seconds ago

Clear
Clear
63.6 °F
Feels Like 63.6 °F
N
5.1
Wind Variable Wind from West
Gusts 9.2 mph

Today
High -- | Low -- °F
--% Chance of Precip.
Yesterday
High -- | Low -- °F
Precip. -- in
6:19 AM 7:47 PM
Waxing Crescent, 15% visible
Pressure 29.92 in
Visibility 10.0 miles
Clouds Clear
Dew Point 53 °F
Humidity 69%
Rainfall 0.00 in
Snow Depth Not available.
UV 1 out of 12
Pollen 4.70 out of 12
Air Quality Not available.
Flu Activity Not available.
METAR KYKM 291453Z 25005KT 10SM CLR 17/09 A2993 RMK AO2 SLP130 T01720094 55002

More Conditions Fewer Conditions

Pressure 29.92 in
Visibility 10.0 miles
Clouds Clear
Dew Point 53 °F
Humidity 69%
Rainfall 0.00 in
Snow Depth Not available.
UV 1 out of 12
Pollen 4.70 out of 12
Air Quality Not available.
Flu Activity Not available.
METAR KYKM 291453Z 25005KT 10SM CLR 17/09 A2993 RMK AO2 SLP130 T01720094 55002

More Conditions Fewer Conditions

10-Day Weather Forecast

Almanac

Astronomy

Aug. 29, 2014 Rise Set
Actual Time 6:19 AM PDT 7:47 PM PDT
Civil Twilight 5:47 AM PDT 8:19 PM PDT
Nautical Twilight 5:09 AM PDT 8:57 PM PDT
Astronomical Twilight 4:27 AM PDT 9:38 PM PDT
Moon 10:30 AM PDT 9:30 PM PDT
Length of Visible Light 14h 31m
Length of Day
13h 28m
Tomorrow will be 3m 11s shorter.
Waxing Crescent, 15% of the Moon is Illuminated
Today
Waxing Crescent
Sep 2
First Quarter
Sep 8
Full
Sep 15
Last Quarter
Sep 24
New

Today's Extremes

State Highs State Lows

Community

WunderPhotos

Upload Photos

1,748,263 photos uploaded!

Nearby

Snow Depth

Station Depth Elevation
Green Lake 0 in 6000 ft
Lost Horse 0 in 5000 ft
White Pass E.S. 0 in 4500 ft
Pigtail Peak 1 in 5900 ft
Morse Lake 0 in 5400 ft

Earthquake Activity

City Distance Mag. Time & Date
No recent earthquake activity has been reported nearby.
Minimum magnitude displayed is 2.5.

Coastal Water Temperatures

Place Temperature
No Stations Reporting

Nearby Weather Stations